Date,TemperatureHighF,TemperatureAvgF,TemperatureLowF,DewpointHighF,DewpointAvgF,DewpointLowF,HumidityHigh,HumidityAvg,HumidityLow,PressureMaxIn,PressureMinIn,WindSpeedMaxMPH,WindSpeedAvgMPH,GustSpeedMaxMPH,PrecipitationSumIn
2013-1-1,45.2,40.5,35.5,34.0,32.3,26.0,81,73,65,30.00,29.87,5,0,7,0.00
2013-1-2,36.3,30.1,23.9,26.0,20.2,18.0,87,68,52,30.21,29.98,1,0,8,0.00
2013-1-3,35.6,27.8,22.0,25.0,21.2,16.0,90,77,45,30.23,30.12,2,0,5,0.00
2013-1-4,39.7,33.0,27.6,27.0,25.4,24.0,88,74,59,30.17,30.05,3,0,7,0.00
2013-1-5,42.0,33.1,25.4,29.0,25.0,22.0,89,73,53,30.36,30.09,2,0,3,0.00
2013-1-6,50.7,40.1,34.6,37.0,32.1,29.0,92,75,45,30.25,30.01,2,0,4,0.00
2013-1-7,49.1,37.7,29.6,35.0,30.5,27.0,93,77,52,30.43,30.08,2,0,4,0.00
2013-1-8,51.5,41.1,28.4,41.0,35.9,26.0,96,83,55,30.46,30.37,3,0,7,0.00
2013-1-9,55.6,45.9,35.5,47.0,41.3,34.0,97,84,65,30.39,30.20,4,0,10,0.00
2013-1-10,51.6,41.6,32.6,37.0,32.8,30.0,90,72,48,30.54,30.32,1,0,4,0.00
2013-1-11,52.4,42.5,31.4,52.0,40.5,29.0,100,92,79,30.51,30.06,5,1,14,0.33
2013-1-12,51.6,47.2,44.8,50.0,46.7,45.0,100,98,91,30.17,30.05,2,0,3,0.00
2013-1-13,53.2,46.3,41.3,53.0,46.2,41.0,100,99,98,30.17,30.02,5,1,6,0.01
2013-1-14,59.4,52.0,43.9,59.0,51.1,41.0,100,96,88,30.24,29.98,10,0,13,0.07
2013-1-15,43.0,38.6,36.1,41.0,37.7,35.0,99,96,91,30.33,30.15,6,1,8,0.71
2013-1-16,42.9,39.7,36.6,43.0,39.5,36.0,100,99,98,30.14,29.83,8,1,16,0.57
2013-1-17,41.6,39.8,35.7,42.0,38.8,35.0,100,96,83,30.11,29.96,1,0,2,0.08
2013-1-18,36.0,32.0,26.0,35.0,24.7,14.0,99,76,44,30.51,30.01,5,0,11,0.00
2013-1-19,52.9,41.1,29.0,39.0,30.7,21.0,86,68,34,30.46,30.00,12,2,12,0.00
2013-1-20,57.7,46.4,32.4,37.0,30.9,22.0,68,56,42,30.07,29.77,7,2,13,0.00
2013-1-21,37.1,32.3,26.6,29.0,20.9,14.0,95,64,49,30.13,29.78,6,1,7,0.00
2013-1-22,26.2,20.5,14.3,25.0,9.3,4.0,94,63,46,30.26,29.87,2,0,8,0.00
2013-1-23,24.8,17.2,9.9,9.0,5.1,2.0,82,60,42,30.32,30.18,2,0,5,0.00
2013-1-24,27.6,19.8,13.2,8.0,6.2,4.0,78,57,41,30.46,30.11,3,1,8,0.00
2013-1-25,25.3,18.7,12.2,18.0,11.0,6.0,93,73,45,30.47,30.07,3,0,5,0.00
2013-1-26,30.6,20.6,10.6,20.0,14.8,9.0,94,80,55,30.41,30.07,3,0,3,0.04
2013-1-27,36.7,23.9,12.9,20.0,16.1,11.0,92,74,46,30.57,30.41,3,0,3,0.01
2013-1-28,42.0,33.3,22.1,40.0,30.9,19.0,97,91,80,30.53,30.05,3,0,8,0.06
2013-1-29,53.0,43.7,35.7,48.0,42.0,35.0,99,94,83,30.15,30.03,2,0,6,0.01
2013-1-30,54.3,48.9,43.9,54.0,48.7,44.0,100,99,95,30.05,29.44,11,4,25,0.00
2013-1-31,58.1,45.0,28.7,58.0,34.9,16.0,100,70,43,29.91,29.18,10,3,22,0.39
2013-2-1,31.2,26.8,17.7,28.0,18.2,11.0,95,71,55,30.31,29.84,3,0,5,0.03
2013-2-2,29.1,22.5,12.7,26.0,13.2,-99.9,94,71,52,30.36,30.06,4,-10,6,0.00
2013-2-3,36.7,28.6,25.0,27.0,24.9,22.0,97,86,62,30.05,29.81,2,0,4,0.08
2013-2-4,32.4,28.0,19.0,28.0,19.0,14.0,90,69,53,30.07,29.86,5,0,7,0.00
2013-2-5,41.4,35.6,31.2,35.0,31.4,24.0,95,85,66,29.95,29.87,5,1,9,0.02
2013-2-6,43.1,33.2,26.1,33.0,27.9,23.0,98,82,57,30.36,29.92,3,0,6,0.01
2013-2-7,40.5,33.1,23.3,36.0,25.0,16.0,92,73,54,30.48,30.24,9,2,13,0.00
2013-2-8,44.8,40.5,33.4,44.0,39.4,33.0,99,96,85,30.23,29.56,12,4,21,1.72
2013-2-9,36.2,30.5,25.9,33.0,25.4,17.0,99,82,65,30.35,29.75,3,1,6,0.03
2013-2-10,37.1,28.9,18.1,34.0,19.3,13.0,89,69,41,30.50,30.32,4,0,5,0.00
2013-2-11,53.2,46.0,37.3,53.0,45.5,35.0,100,98,90,30.32,29.68,7,2,14,0.51
2013-2-12,51.9,41.8,33.9,48.0,34.9,29.0,99,78,51,29.98,29.75,2,0,4,0.01
2013-2-13,42.6,35.8,28.1,37.0,32.5,27.0,97,88,73,29.97,29.62,12,2,12,0.35
2013-2-14,45.8,37.6,31.1,41.0,35.4,31.0,100,92,72,30.04,29.70,4,0,6,0.10
2013-2-15,51.7,41.3,32.9,44.0,38.3,32.0,99,89,73,30.06,29.92,7,1,12,0.01
2013-2-16,39.9,36.2,29.0,37.0,34.0,27.0,96,91,80,29.96,29.72,3,0,8,0.09
2013-2-17,34.5,29.2,24.1,26.0,17.0,8.0,87,61,49,30.07,29.69,3,1,7,0.01
2013-2-18,40.1,28.6,19.8,22.0,14.1,8.0,69,56,37,30.31,30.07,4,1,7,0.00
2013-2-19,47.9,41.3,32.3,48.0,37.9,23.0,99,88,69,30.23,29.71,5,2,13,0.16
2013-2-20,37.9,31.6,24.7,32.0,22.0,16.0,90,68,55,30.07,29.80,2,1,7,0.00
2013-2-21,38.0,29.2,20.6,21.0,18.3,15.0,80,65,50,30.28,30.05,3,1,7,0.00
2013-2-22,37.7,32.1,24.6,35.0,26.7,18.0,97,81,69,30.40,30.23,8,1,10,0.04
2013-2-23,47.7,42.9,36.1,48.0,42.6,35.0,100,99,97,30.24,29.75,7,2,9,0.30
2013-2-24,52.9,41.0,29.6,44.0,35.7,24.0,100,83,60,30.02,29.74,2,0,5,0.00
2013-2-25,45.3,34.8,24.8,32.0,28.1,22.0,95,78,53,30.24,30.03,4,0,6,0.00
2013-2-26,47.5,38.7,28.6,47.0,36.8,28.0,99,93,83,30.25,29.70,15,5,24,1.13
2013-2-27,58.8,48.8,45.1,52.0,45.8,40.0,100,90,67,29.69,29.48,7,1,17,0.05
2013-2-28,45.9,41.7,37.1,42.0,38.6,34.0,98,89,73,29.67,29.58,1,0,2,0.12
2013-3-1,45.6,38.4,30.0,37.0,33.1,29.0,98,82,65,29.81,29.65,2,0,4,0.00
2013-3-2,44.0,36.4,27.7,32.0,28.8,26.0,94,75,55,29.82,29.73,2,0,3,0.00
2013-3-3,41.0,33.3,28.5,27.0,24.2,22.0,86,70,51,29.80,29.71,3,0,4,0.00
2013-3-4,43.3,35.0,28.6,29.0,25.0,22.0,85,68,52,29.95,29.80,3,1,5,0.00
2013-3-5,45.8,35.9,25.9,35.0,28.3,23.0,90,75,52,30.04,29.92,5,1,9,0.00
2013-3-6,41.7,39.2,34.3,39.0,37.2,34.0,98,92,82,29.91,29.57,22,9,36,0.87
2013-3-7,46.3,39.3,34.1,37.0,34.4,32.0,98,83,64,30.07,29.81,6,2,15,0.07
2013-3-8,40.1,35.5,31.9,38.0,34.0,31.0,98,94,82,30.16,30.01,3,1,5,0.08
2013-3-9,57.9,41.9,33.5,36.0,30.8,22.0,94,68,25,30.31,30.16,4,1,7,0.00
2013-3-10,43.9,38.0,29.1,39.0,35.6,29.0,99,91,80,30.38,30.30,9,2,11,0.01
2013-3-11,53.4,45.2,36.3,49.0,43.9,36.0,100,95,83,30.31,30.07,6,1,9,0.00
2013-3-12,53.6,49.9,41.7,54.0,49.0,39.0,100,96,89,30.07,29.72,8,2,16,0.55
2013-3-13,53.4,41.1,31.5,39.0,34.1,31.0,97,78,45,29.95,29.84,3,0,8,0.00
2013-3-14,45.2,36.2,27.5,31.0,23.3,20.0,80,61,42,30.02,29.92,3,1,6,0.00
2013-3-15,51.9,39.0,25.3,35.0,25.4,18.0,88,60,38,30.06,29.78,7,1,10,0.00
2013-3-16,42.6,39.0,35.2,37.0,34.0,29.0,94,83,62,29.90,29.72,11,3,13,0.00
2013-3-17,42.2,37.1,31.0,35.0,28.2,22.0,97,72,50,30.29,29.89,6,1,9,0.00
2013-3-18,47.9,38.9,33.3,48.0,31.9,21.0,99,77,59,30.35,29.87,12,4,17,1.01
2013-3-19,55.2,45.8,36.7,48.0,42.1,31.0,100,88,55,29.86,29.70,3,0,4,0.25
2013-3-20,50.8,40.7,27.9,34.0,27.0,20.0,88,61,31,29.96,29.79,8,1,12,0.00
2013-3-21,41.5,33.6,27.2,34.0,27.0,17.0,95,77,61,29.81,29.66,4,1,11,0.05
2013-3-22,43.4,33.2,24.1,27.0,22.8,17.0,79,67,48,29.96,29.81,4,0,7,0.00
2013-3-23,51.5,37.5,25.6,29.0,25.8,22.0,86,65,40,29.97,29.86,4,0,6,0.00
2013-3-24,45.3,35.8,26.4,31.0,26.4,23.0,89,70,42,29.98,29.66,5,1,8,0.00
2013-3-25,39.6,35.3,33.0,37.0,34.2,32.0,99,96,80,29.69,29.40,11,2,17,0.95
2013-3-26,52.5,41.1,32.2,41.0,35.3,32.0,100,82,53,29.90,29.62,2,0,7,0.10
2013-3-27,54.9,42.3,30.8,37.0,33.2,30.0,96,72,48,30.02,29.90,3,0,5,0.00
2013-3-28,50.1,41.7,30.0,36.0,32.6,28.0,92,72,51,30.14,30.01,1,0,4,0.00
2013-3-29,58.2,44.5,31.2,37.0,33.4,29.0,90,68,39,30.19,30.09,3,0,6,0.00
2013-3-30,60.1,46.4,31.4,39.0,33.2,29.0,92,64,32,30.20,30.09,6,1,9,0.00
2013-3-31,52.8,46.4,40.8,51.0,43.3,37.0,99,89,71,30.16,29.71,8,1,11,0.23
2013-4-1,66.7,50.7,37.8,51.0,43.9,29.0,100,79,45,29.91,29.66,6,1,13,0.03
2013-4-2,50.3,38.9,28.9,29.0,24.8,20.0,85,59,38,30.13,29.92,3,0,6,0.00
2013-4-3,52.0,39.5,28.9,25.0,21.7,18.0,78,52,29,30.31,30.11,3,1,7,0.00
2013-4-4,44.9,37.1,25.3,36.0,25.7,19.0,85,65,39,30.42,30.13,5,1,13,0.00
2013-4-5,63.8,48.5,37.9,49.0,37.9,30.0,99,72,33,30.13,29.75,3,1,7,0.86
2013-4-6,48.7,42.3,36.1,33.0,27.4,20.0,78,57,35,30.33,29.98,7,1,11,0.00
2013-4-7,54.1,47.7,37.3,47.0,42.0,33.0,89,81,69,30.33,30.03,7,3,20,0.00
2013-4-8,71.3,57.2,46.9,55.0,50.2,45.0,93,79,53,30.08,30.01,5,2,9,0.00
2013-4-9,86.9,68.4,53.6,59.0,55.3,52.0,93,66,34,30.03,29.94,6,2,11,0.00
2013-4-10,88.8,71.1,56.3,62.0,57.7,52.0,88,65,38,29.94,29.78,8,2,12,0.00
2013-4-11,68.8,55.2,47.3,60.0,52.4,47.0,99,90,72,29.93,29.83,16,5,18,0.00
2013-4-12,61.8,52.1,47.3,62.0,52.1,47.0,100,99,97,29.90,29.62,13,3,18,0.25
2013-4-13,64.1,52.5,42.3,47.0,44.5,42.0,100,77,47,29.97,29.72,6,1,8,0.01
2013-4-14,66.8,54.9,41.4,50.0,42.9,36.0,99,69,33,30.18,29.97,3,0,6,0.00
2013-4-15,53.6,50.1,46.9,47.0,44.2,40.0,89,80,68,30.35,30.15,10,4,11,0.01
2013-4-16,63.3,55.9,48.7,56.0,51.9,46.0,95,87,76,30.35,30.16,6,2,14,0.00
2013-4-17,70.3,57.8,50.8,63.0,52.6,44.0,96,83,69,30.28,30.12,8,1,12,0.00
2013-4-18,62.3,55.7,50.0,57.0,52.8,44.0,99,90,78,30.30,30.10,6,1,9,0.00
2013-4-19,64.0,59.0,55.3,63.0,58.3,55.0,99,97,89,30.09,29.71,10,3,19,0.16
2013-4-20,60.7,52.7,44.9,61.0,43.8,35.0,100,75,44,30.30,29.71,6,1,13,0.41
2013-4-21,51.0,44.2,38.1,36.0,30.5,24.0,75,59,39,30.61,30.30,7,2,9,0.00
2013-4-22,49.9,46.6,43.6,44.0,39.5,31.0,90,77,61,30.61,30.42,17,6,22,0.00
2013-4-23,47.8,46.0,44.0,45.0,43.3,41.0,94,90,86,30.42,30.12,14,3,17,0.00
2013-4-24,59.4,50.7,39.1,53.0,48.2,38.0,99,91,76,30.13,29.89,10,2,15,0.00
2013-4-25,64.5,55.0,43.8,55.0,41.6,34.0,98,63,33,30.29,29.91,7,1,9,0.04
2013-4-26,69.3,54.8,41.3,47.0,40.8,35.0,98,64,31,30.41,30.29,4,0,10,0.00
2013-4-27,61.1,51.9,41.2,46.0,41.2,35.0,95,70,40,30.43,30.32,7,1,10,0.00
2013-4-28,64.1,54.7,43.8,54.0,45.4,38.0,99,74,41,30.33,30.21,5,1,7,0.00
2013-4-29,55.9,54.2,53.0,55.0,53.4,51.0,99,97,86,30.22,30.13,4,1,9,1.09
2013-4-30,60.5,55.2,51.4,53.0,50.7,46.0,99,85,70,30.29,30.13,14,4,16,0.05
2013-5-1,59.2,52.3,44.9,50.0,47.4,43.0,95,84,58,30.45,30.28,13,4,19,0.00
2013-5-2,60.3,53.1,45.2,49.0,45.8,44.0,96,78,59,30.45,30.32,7,2,13,0.00
2013-5-3,55.1,51.9,48.7,49.0,45.5,42.0,90,79,64,30.42,30.33,15,5,18,0.00
2013-5-4,58.9,51.2,44.4,51.0,45.7,43.0,97,82,64,30.34,30.23,11,3,14,0.00
2013-5-5,54.8,49.6,46.5,47.0,43.8,41.0,95,81,72,30.26,30.20,13,4,15,0.00
2013-5-6,55.5,52.1,48.5,53.0,50.6,47.0,99,95,88,30.21,30.12,11,4,16,0.00
2013-5-7,58.6,54.9,51.6,58.0,54.7,51.0,100,99,96,30.12,30.02,10,4,15,0.29
2013-5-8,70.8,60.0,55.6,65.0,57.6,55.0,100,92,70,30.02,29.96,4,1,9,0.04
2013-5-9,75.0,62.5,55.8,62.0,58.0,55.0,99,86,59,29.99,29.91,4,0,7,0.06
2013-5-10,76.3,64.2,55.0,64.0,56.2,-99.9,99,82,62,30.01,29.89,4,1,11,0.00
2013-5-11,69.6,63.4,59.7,69.0,62.3,59.0,100,96,84,29.93,29.72,4,1,10,1.28
2013-5-12,69.2,58.1,48.2,62.0,45.3,-99.9,100,73,37,29.97,29.69,1,0,6,0.13
2013-5-13,62.2,51.6,41.2,42.0,37.1,32.0,87,60,34,30.12,29.97,2,0,7,0.00
2013-5-14,63.3,51.0,35.7,48.0,37.8,32.0,95,65,33,30.17,30.06,3,0,5,0.00
2013-5-15,67.8,60.3,53.2,60.0,54.7,48.0,92,82,75,30.10,29.71,7,1,10,0.00
2013-5-16,81.1,70.2,59.5,67.0,59.3,48.0,99,72,35,29.84,29.71,4,0,8,0.00
2013-5-17,78.7,64.8,56.3,61.0,52.8,47.0,96,68,38,30.19,29.84,4,0,8,0.00
2013-5-18,66.8,60.8,57.2,58.0,55.9,51.0,98,84,72,30.29,30.19,3,1,6,0.17
2013-5-19,61.7,59.8,57.6,61.0,59.5,57.0,100,98,95,30.26,30.14,5,1,9,0.25
2013-5-20,75.4,67.2,60.7,70.0,65.3,61.0,100,93,81,30.16,30.00,5,1,7,0.00
2013-5-21,78.6,69.7,62.8,72.0,67.0,62.0,100,91,77,30.01,29.89,4,1,8,0.00
2013-5-22,78.8,70.0,62.5,73.0,67.4,62.0,99,92,77,29.94,29.87,7,1,9,0.00
2013-5-23,74.8,67.5,62.5,70.0,65.6,62.0,99,93,83,29.94,29.78,9,2,17,0.01
2013-5-24,67.9,58.6,47.7,68.0,57.1,43.0,100,95,79,30.00,29.71,2,0,7,0.45
2013-5-25,63.2,53.9,46.7,45.0,42.9,39.0,91,69,46,30.08,29.97,2,0,3,0.00
2013-5-26,71.4,58.5,43.8,47.0,43.3,40.0,91,60,37,30.21,30.06,2,0,6,0.00
2013-5-27,73.4,60.5,45.8,55.0,47.8,41.0,96,67,34,30.27,30.18,4,0,7,0.00
2013-5-28,65.3,60.9,57.8,62.0,58.3,50.0,98,91,70,30.23,30.11,5,1,9,0.33
2013-5-29,84.4,71.7,60.7,73.0,65.7,58.0,97,82,64,30.13,30.07,3,1,7,0.00
2013-5-30,88.7,76.0,65.2,73.0,68.3,63.0,94,78,60,30.17,30.11,4,0,6,0.00
2013-5-31,88.2,75.1,63.9,72.0,67.9,63.0,99,80,53,30.16,30.04,7,1,10,0.00
2013-6-1,85.2,73.5,63.3,73.0,68.0,62.0,97,83,66,30.07,29.96,6,1,10,0.00
2013-6-2,79.5,71.7,63.6,72.0,66.9,63.0,98,85,71,29.96,29.84,7,2,13,0.11
2013-6-3,73.1,69.3,64.4,72.0,68.9,64.0,100,98,95,29.89,29.80,2,0,5,1.52
2013-6-4,74.7,66.0,58.0,67.0,56.4,52.0,100,73,46,30.10,29.88,2,0,8,0.00
2013-6-5,71.7,63.2,54.1,60.0,55.6,50.0,97,78,53,30.19,30.09,4,0,7,0.00
2013-6-6,72.0,65.0,56.3,65.0,62.2,56.0,100,91,77,30.12,29.96,5,1,12,0.01
2013-6-7,69.9,66.9,64.4,70.0,66.7,63.0,100,99,96,29.95,29.51,4,1,9,3.06
2013-6-8,73.9,68.1,61.8,71.0,66.9,62.0,100,96,86,30.07,29.50,2,0,5,0.50
2013-6-9,78.5,69.9,62.5,67.0,64.3,60.0,100,84,54,30.19,30.07,2,0,6,0.00
2013-6-10,70.3,68.2,66.5,70.0,68.0,66.0,100,99,97,30.16,29.84,5,1,11,0.57
2013-6-11,82.4,74.4,67.3,73.0,68.0,-99.9,100,85,66,29.83,29.70,5,0,7,0.19
2013-6-12,85.4,75.3,66.8,71.0,67.1,62.0,95,77,57,29.85,29.78,2,0,5,0.00
2013-6-13,77.9,69.9,66.7,74.0,67.1,61.0,100,91,80,29.85,29.43,4,0,7,0.64
2013-6-14,69.4,61.1,55.8,68.0,59.1,56.0,99,94,69,29.93,29.46,2,0,8,0.45
2013-6-15,82.3,70.1,58.3,69.0,62.4,58.0,100,79,49,30.03,29.93,2,0,4,0.01
2013-6-16,84.3,74.1,65.9,73.0,68.0,63.0,98,82,59,30.02,29.85,5,0,7,0.02
2013-6-17,86.2,74.7,67.0,74.0,70.2,67.0,99,87,61,29.95,29.88,4,0,5,0.05
2013-6-18,77.5,69.2,64.6,73.0,67.8,64.0,99,95,85,29.92,29.79,6,0,11,1.40
2013-6-19,71.6,66.0,61.1,64.0,60.9,55.0,99,85,62,30.17,29.84,6,1,8,0.00
2013-6-20,76.4,67.0,57.0,64.0,58.2,51.0,99,76,48,30.29,30.18,3,0,6,0.00
2013-6-21,75.2,66.9,56.6,65.0,60.9,56.0,99,82,64,30.32,30.27,3,0,6,0.00
2013-6-22,79.0,69.2,58.6,67.0,62.1,58.0,100,79,55,30.27,30.16,3,0,7,0.00
2013-6-23,80.8,72.9,63.5,75.0,69.2,61.0,99,88,78,30.22,30.08,4,0,11,0.07
2013-6-24,90.5,79.3,72.2,79.0,74.8,70.0,100,87,63,30.11,29.99,4,0,8,0.01
2013-6-25,92.4,81.5,70.8,78.0,73.3,70.0,98,78,56,30.02,29.87,1,0,5,0.00
2013-6-26,89.3,79.8,71.5,77.0,72.2,67.0,94,78,56,29.89,29.79,4,1,9,0.01
2013-6-27,83.8,76.9,71.7,77.0,73.3,71.0,98,89,76,29.82,29.60,5,1,12,0.02
2013-6-28,87.3,77.0,71.2,77.0,72.9,70.0,99,88,65,29.63,29.50,6,1,9,0.08
2013-6-29,81.2,74.1,68.0,76.0,71.5,68.0,99,92,80,29.72,29.49,5,1,10,0.09
2013-6-30,76.9,73.0,69.1,75.0,71.7,69.0,99,96,89,29.90,29.72,6,1,10,0.02
2013-7-1,79.4,72.9,71.1,77.0,72.3,71.0,100,98,91,30.04,29.89,6,1,8,0.31
2013-7-2,79.8,74.2,70.8,75.0,72.7,70.0,100,95,84,30.21,30.05,7,1,10,0.01
2013-7-3,82.9,75.2,69.2,77.0,73.2,69.0,100,93,82,30.26,30.20,9,1,13,0.00
2013-7-4,84.9,76.2,68.7,78.0,71.9,-99.9,100,90,77,30.28,30.21,6,1,10,0.00
2013-7-5,88.6,78.4,69.3,78.0,73.9,69.0,100,87,70,30.24,30.14,4,0,9,0.00
2013-7-6,92.8,82.1,72.5,80.0,75.6,71.0,98,82,60,30.18,30.07,2,0,3,0.00
2013-7-7,92.9,82.9,74.2,79.0,75.4,71.0,96,79,60,30.11,29.98,2,0,4,0.00
2013-7-8,87.9,79.2,72.8,76.0,72.7,70.0,95,81,65,30.08,30.02,2,0,4,0.00
2013-7-9,87.1,78.6,71.7,79.0,74.6,69.0,98,88,75,30.10,30.01,5,0,7,0.00
2013-7-10,88.0,76.3,70.3,80.0,73.4,69.0,97,91,72,30.03,29.86,3,0,6,0.17
2013-7-11,80.2,74.6,70.6,76.0,72.8,69.0,99,94,87,29.91,29.85,3,0,6,0.14
2013-7-12,73.6,70.9,67.9,73.0,70.5,68.0,100,99,96,30.02,29.90,6,2,10,0.85
2013-7-13,83.3,75.6,69.8,78.0,73.9,70.0,100,95,79,30.30,30.02,4,1,9,0.00
2013-7-14,88.3,79.7,74.4,79.0,75.7,72.0,100,88,68,30.34,30.28,3,0,8,0.00
2013-7-15,93.7,82.4,73.0,80.0,75.5,71.0,99,81,54,30.29,30.14,0,0,3,0.00
2013-7-16,90.4,82.1,74.8,78.0,74.0,70.0,98,78,55,30.18,30.14,2,0,5,0.00
2013-7-17,93.3,82.5,73.3,80.0,73.9,71.0,99,77,52,30.18,30.09,0,0,3,0.00
2013-7-18,95.4,85.4,75.7,83.0,77.9,73.0,98,79,56,30.10,29.98,1,0,5,0.00
2013-7-19,95.2,84.9,78.4,81.0,78.2,75.0,93,81,59,30.01,29.86,5,0,9,0.00
2013-7-20,91.6,84.8,78.2,81.0,78.1,72.0,91,81,65,29.90,29.77,1,0,5,0.00
2013-7-21,90.1,78.4,71.5,80.0,74.7,71.0,100,89,68,29.95,29.86,4,0,8,0.43
2013-7-22,84.6,77.5,73.5,78.0,75.3,72.0,99,93,77,29.92,29.79,3,0,7,0.00
2013-7-23,88.0,80.2,74.3,81.0,76.5,73.0,99,89,72,29.79,29.60,2,0,7,0.23
2013-7-24,89.1,79.2,72.8,76.0,72.9,68.0,99,82,57,29.88,29.65,1,0,4,0.00
2013-7-25,74.0,67.2,64.4,67.0,62.8,59.0,94,86,73,30.02,29.88,6,1,12,0.03
2013-7-26,81.0,70.9,64.0,70.0,65.9,62.0,95,85,68,30.06,29.97,3,0,8,0.00
2013-7-27,81.0,73.1,66.8,72.0,68.6,66.0,99,86,65,30.07,29.96,5,0,7,0.00
2013-7-28,80.0,73.7,68.4,75.0,71.5,68.0,100,93,82,29.98,29.92,5,1,10,0.00
2013-7-29,84.1,74.2,64.3,74.0,68.4,62.0,99,84,50,30.13,29.95,4,0,5,0.00
2013-7-30,84.1,72.3,61.0,67.0,62.4,60.0,98,73,47,30.18,30.12,0,0,1,0.00
2013-7-31,82.1,72.5,62.3,70.0,65.5,61.0,98,80,59,30.16,30.05,5,0,7,0.00
2013-8-1,78.5,71.8,68.4,71.0,69.1,67.0,99,91,77,30.05,29.82,3,0,11,0.66
2013-8-2,84.7,75.1,67.7,75.0,69.6,66.0,100,85,54,29.95,29.81,2,0,5,0.00
2013-8-3,81.9,73.6,67.4,72.0,69.3,66.0,97,86,65,29.95,29.90,0,0,2,0.03
2013-8-4,82.9,72.5,63.5,69.0,63.9,60.0,99,77,48,29.98,29.86,3,0,5,0.00
2013-8-5,81.1,69.6,58.0,62.0,57.8,53.0,94,69,41,30.07,29.98,1,0,4,0.00
2013-8-6,77.7,69.1,62.2,69.0,65.3,60.0,98,88,72,30.12,30.04,2,0,6,0.04
2013-8-7,76.0,72.1,68.3,72.0,69.3,66.0,98,91,78,30.13,30.06,7,1,9,0.20
2013-8-8,81.8,76.2,72.8,76.0,73.0,71.0,95,90,80,30.07,30.03,5,1,11,0.00
2013-8-9,89.0,79.0,74.3,80.0,76.1,73.0,99,91,72,30.03,29.83,4,1,8,0.20
2013-8-10,84.5,77.1,69.2,75.0,71.0,66.0,100,83,58,30.05,29.90,2,0,3,0.00
2013-8-11,79.9,73.1,66.5,73.0,68.9,66.0,99,87,67,30.12,30.04,4,1,6,0.00
2013-8-12,84.3,73.0,69.4,76.0,65.8,-99.9,100,87,72,30.05,29.93,4,0,5,0.37
2013-8-13,82.3,76.5,72.7,78.0,73.8,71.0,100,92,71,29.93,29.71,2,0,8,0.07
2013-8-14,76.3,68.8,58.7,72.0,61.0,55.0,99,78,53,30.06,29.75,1,0,4,0.06
2013-8-15,75.4,65.8,56.3,59.0,56.6,54.0,96,74,48,30.16,30.06,1,0,5,0.00
2013-8-16,78.6,68.0,57.2,66.0,58.5,55.0,99,74,44,30.20,30.14,4,0,6,0.00
2013-8-17,77.6,68.6,58.1,65.0,61.4,58.0,98,79,57,30.27,30.19,5,0,6,0.00
2013-8-18,75.5,71.9,66.7,67.0,64.7,62.0,91,78,66,30.23,30.12,6,1,9,0.00
2013-8-19,77.2,70.2,61.7,69.0,65.6,61.0,97,86,68,30.16,30.07,1,0,2,0.00
2013-8-20,84.7,74.5,64.4,74.0,69.8,64.0,100,86,64,30.15,30.08,6,0,9,0.00
2013-8-21,86.4,76.3,67.4,77.0,72.1,67.0,100,87,67,30.19,30.09,3,0,11,0.00
2013-8-22,84.6,74.9,69.9,77.0,72.1,69.0,99,91,75,30.09,29.91,3,0,5,0.14
2013-8-23,79.7,72.7,67.3,72.0,68.2,64.0,100,86,63,30.07,29.89,3,0,6,0.02
2013-8-24,75.8,68.9,60.3,68.0,64.5,60.0,99,86,68,30.34,30.07,8,1,9,0.00
2013-8-25,80.1,68.6,57.4,68.0,58.9,48.0,100,75,35,30.41,30.28,6,0,9,0.00
2013-8-26,83.2,72.6,62.9,71.0,65.0,60.0,90,77,60,30.29,29.98,2,0,4,0.00
2013-8-27,88.4,79.0,72.6,73.0,70.5,69.0,90,76,56,29.97,29.85,3,0,4,0.00
2013-8-28,79.1,72.7,69.4,75.0,71.5,68.0,100,96,87,29.91,29.81,2,0,3,2.09
2013-8-29,76.3,72.7,69.4,73.0,69.9,67.0,100,91,77,30.02,29.84,12,2,13,0.00
2013-8-30,77.9,72.0,66.8,72.0,67.8,-99.9,99,89,78,30.03,29.91,5,0,7,0.00
2013-8-31,84.0,76.2,68.9,77.0,72.9,68.0,98,89,77,29.93,29.83,6,1,11,0.00
2013-9-1,84.3,77.5,74.1,78.0,75.1,72.0,99,92,69,29.87,29.79,4,1,8,0.00
2013-9-2,82.6,75.9,73.3,77.0,74.7,72.0,100,96,82,29.80,29.73,2,0,4,0.31
2013-9-3,86.8,76.6,65.5,79.0,71.6,64.0,100,86,58,29.90,29.72,0,0,3,0.00
2013-9-4,81.7,70.1,59.1,65.0,61.0,55.0,98,76,40,30.03,29.90,1,0,3,0.00
2013-9-5,83.0,72.7,63.9,69.0,63.4,50.0,97,74,53,30.11,29.97,4,0,6,0.00
2013-9-6,74.0,63.8,55.2,58.0,53.4,49.0,91,70,47,30.23,30.12,3,0,7,0.00
2013-9-7,77.7,66.3,54.2,65.0,57.7,51.0,100,77,42,30.14,29.93,3,0,9,0.00
2013-9-8,86.8,74.5,66.4,71.0,65.8,52.0,94,76,53,30.05,29.83,2,0,10,0.00
2013-9-9,74.0,67.3,56.4,66.0,59.4,51.0,90,76,59,30.21,30.05,5,1,7,0.00
2013-9-10,81.9,75.5,69.2,75.0,71.1,66.0,93,86,76,30.20,30.10,4,1,11,0.00
2013-9-11,88.7,77.7,70.5,78.0,73.0,69.0,97,86,69,30.15,30.02,5,0,10,0.00
2013-9-12,84.3,76.1,71.4,76.0,72.8,71.0,98,90,74,30.02,29.72,6,1,9,0.16
2013-9-13,77.0,71.0,61.3,72.0,66.0,56.0,100,85,60,29.86,29.66,1,0,4,0.01
2013-9-14,70.5,60.7,53.1,56.0,53.2,50.0,92,77,56,30.16,29.87,1,0,3,0.00
2013-9-15,72.9,60.5,47.2,61.0,53.2,46.0,99,79,52,30.24,30.11,4,0,10,0.00
2013-9-16,74.3,65.4,58.7,67.0,60.8,56.0,94,85,70,30.20,30.05,3,0,5,0.00
2013-9-17,61.8,57.1,50.6,55.0,48.1,44.0,88,73,56,30.40,30.20,9,2,14,0.00
2013-9-18,67.8,56.6,44.9,55.0,50.4,44.0,99,81,57,30.35,30.21,2,0,5,0.00
2013-9-19,72.0,60.4,49.6,62.0,54.5,49.0,100,83,58,30.21,30.10,2,0,8,0.00
2013-9-20,73.9,63.6,52.9,66.0,59.0,52.0,100,86,68,30.11,30.01,4,0,8,0.00
2013-9-21,76.0,67.4,57.5,70.0,64.1,56.0,100,90,63,30.02,29.70,6,0,9,0.14
2013-9-22,73.5,64.6,53.5,69.0,58.9,49.0,100,84,55,29.91,29.66,2,0,4,0.39
2013-9-23,67.9,56.1,47.3,52.0,48.6,45.0,94,77,53,30.05,29.91,3,0,6,0.00
2013-9-24,71.5,56.0,44.4,53.0,49.4,44.0,97,81,50,30.07,29.91,0,0,3,0.00
2013-9-25,70.7,58.6,47.4,60.0,54.4,47.0,97,87,68,29.95,29.88,5,0,5,0.00
2013-9-26,70.6,61.5,52.6,60.0,56.5,52.0,100,85,56,30.08,29.92,3,0,4,0.00
2013-9-27,68.4,62.5,53.9,59.0,56.3,53.0,98,80,65,30.24,30.08,7,1,8,0.00
2013-9-28,68.9,63.3,56.7,59.0,56.7,53.0,94,79,66,30.30,30.21,8,1,9,0.00
2013-9-29,68.4,60.9,53.9,59.0,54.7,51.0,99,82,58,30.20,30.06,8,1,12,0.00
2013-9-30,71.3,60.0,50.4,60.0,55.7,49.0,98,86,67,30.07,30.00,3,0,5,0.00
2013-10-1,81.3,65.2,52.2,65.0,59.8,52.0,100,84,57,30.04,29.93,0,0,2,0.00
2013-10-2,84.4,70.9,58.5,67.0,63.5,58.0,99,79,52,30.04,29.95,1,0,2,0.00
2013-10-3,76.4,68.5,61.0,68.0,64.4,61.0,100,87,65,30.11,30.03,3,0,5,0.00
2013-10-4,81.4,71.3,63.0,72.0,67.0,63.0,100,87,65,30.08,30.00,2,0,6,0.00
2013-10-5,77.4,69.2,64.9,72.0,67.4,64.0,100,94,81,30.07,30.02,3,0,5,0.00
2013-10-6,78.1,70.8,67.1,73.0,69.2,67.0,100,95,81,30.06,30.00,3,0,7,0.00
2013-10-7,76.5,69.5,60.0,72.0,67.8,60.0,99,95,85,30.02,29.84,9,1,14,0.20
2013-10-8,64.6,58.5,52.4,59.0,52.6,50.0,98,81,65,30.27,30.02,3,0,9,0.00
2013-10-9,63.2,60.9,56.2,57.0,54.6,51.0,92,80,71,30.29,30.19,13,4,19,0.03
2013-10-10,64.2,61.8,59.4,64.0,61.4,58.0,100,98,91,30.19,29.94,13,5,20,1.08
2013-10-11,65.3,64.0,62.8,65.0,63.9,63.0,100,100,99,29.99,29.89,12,5,18,1.39
2013-10-12,65.9,63.0,61.5,63.0,61.9,60.0,99,96,86,30.16,29.97,14,5,19,0.75
2013-10-13,64.7,62.2,59.6,63.0,58.2,56.0,97,87,76,30.32,30.16,13,5,20,0.02
2013-10-14,65.3,58.7,53.5,59.0,55.3,53.0,98,89,75,30.32,30.24,8,1,10,0.00
2013-10-15,67.6,59.1,51.1,60.0,54.5,50.0,98,85,61,30.24,30.08,6,1,10,0.00
2013-10-16,68.3,62.4,58.7,64.0,61.0,58.0,99,95,84,30.08,29.94,4,1,7,0.00
2013-10-17,71.1,65.1,60.1,67.0,63.6,60.0,99,95,85,29.93,29.75,3,0,8,0.00
2013-10-18,68.8,59.7,49.4,66.0,52.2,48.0,97,78,53,30.02,29.74,1,0,3,0.00
2013-10-19,63.8,56.5,47.0,61.0,52.9,45.0,99,88,62,30.01,29.79,2,0,4,0.04
2013-10-20,64.3,53.1,44.8,59.0,44.6,40.0,98,75,42,30.10,29.81,1,0,2,0.00
2013-10-21,65.5,53.7,42.4,55.0,46.4,41.0,99,78,46,30.17,30.00,2,0,7,0.00
2013-10-22,69.1,58.5,50.7,57.0,51.8,48.0,93,80,57,30.00,29.78,1,0,3,0.00
2013-10-23,50.9,48.2,40.6,50.0,46.0,40.0,99,92,73,29.83,29.61,0,0,4,0.38
2013-10-24,54.7,42.9,36.3,41.0,36.0,32.0,99,79,48,30.08,29.81,3,0,5,0.01
2013-10-25,54.9,42.6,33.8,39.0,35.6,32.0,96,78,53,30.29,30.08,1,0,4,0.00
2013-10-26,56.8,45.5,32.8,44.0,36.9,32.0,99,74,43,30.28,29.94,3,0,10,0.00
2013-10-27,60.6,50.4,40.2,41.0,38.5,36.0,91,65,42,30.17,29.91,1,0,5,0.00
2013-10-28,62.2,48.2,35.7,52.0,43.4,34.0,98,85,61,30.27,30.14,3,0,5,0.00
2013-10-29,60.7,51.7,44.4,52.0,47.5,43.0,98,86,71,30.36,30.27,7,1,9,0.00
2013-10-30,57.4,51.2,44.7,56.0,50.3,44.0,99,97,91,30.34,30.19,0,0,1,0.03
2013-10-31,66.2,60.4,52.4,63.0,59.2,52.0,100,95,85,30.21,29.87,5,1,9,0.02
2013-11-1,66.3,63.8,61.3,65.0,63.0,61.0,100,97,91,29.86,29.62,4,1,13,0.20
2013-11-2,68.2,61.2,53.6,64.0,55.3,48.0,100,82,55,29.80,29.61,3,0,5,0.01